Observation data for White River Lake on 02/12/2018      Previous  Date  Next       Current Mesonet Observations  Soil Data  Daily Summary Page  Observations in Plain Language
KWVS 120600Z 03002KT M02/M15 A3024 RMK A01 T10201150  RH  036%=      5-min Rain = 0
KWVS 120605Z 01002KT M03/M15 A3024 RMK A01 T10281152  RH  038%=      5-min Rain = 0
KWVS 120610Z 05002KT M02/M15 A3024 RMK A01 T10211149  RH  037%=      5-min Rain = 0
KWVS 120615Z 03003KT M02/M15 A3024 RMK A01 T10231152  RH  036%=      5-min Rain = 0
KWVS 120620Z 03002KT M03/M15 A3024 RMK A01 T10251150  RH  037%=      5-min Rain = 0
KWVS 120625Z 02003KT M02/M15 A3024 RMK A01 T10241151  RH  037%=      5-min Rain = 0
KWVS 120630Z 02003KT M03/M15 A3024 RMK A01 T10261150  RH  037%=      5-min Rain = 0
KWVS 120635Z 02003KT M03/M15 A3024 RMK A01 T10261150  RH  038%=      5-min Rain = 0
KWVS 120640Z 01003KT M03/M15 A3024 RMK A01 T10251150  RH  037%=      5-min Rain = 0
KWVS 120645Z 01003KT M03/M15 A3024 RMK A01 T10271150  RH  038%=      5-min Rain = 0
KWVS 120650Z 01002KT M03/M15 A3024 RMK A01 T10261149  RH  038%=      5-min Rain = 0
KWVS 120655Z 01002KT M02/M15 A3025 RMK A01 T10231149  RH  037%=      5-min Rain = 0
KWVS 120700Z 01002KT M02/M15 A3025 RMK A01 T10231150  RH  037%=      5-min Rain = 0
KWVS 120705Z 01002KT M02/M15 A3025 RMK A01 T10241149  RH  037%=      5-min Rain = 0
KWVS 120710Z 01003KT M03/M15 A3025 RMK A01 T10251150  RH  037%=      5-min Rain = 0
KWVS 120715Z 00003KT M03/M15 A3025 RMK A01 T10281150  RH  038%=      5-min Rain = 0
KWVS 120720Z 01002KT M03/M15 A3026 RMK A01 T10271149  RH  038%=      5-min Rain = 0
KWVS 120725Z 09001KT M02/M15 A3026 RMK A01 T10231148  RH  037%=      5-min Rain = 0
KWVS 120730Z 11002KT M02/M15 A3026 RMK A01 T10171148  RH  036%=      5-min Rain = 0
KWVS 120735Z 14003KT M02/M15 A3026 RMK A01 T10171148  RH  036%=      5-min Rain = 0
KWVS 120740Z 14002KT M02/M15 A3026 RMK A01 T10161147  RH  036%=      5-min Rain = 0
KWVS 120745Z 11002KT M02/M15 A3026 RMK A01 T10191148  RH  036%=      5-min Rain = 0
KWVS 120750Z 11002KT M02/M15 A3027 RMK A01 T10241150  RH  037%=      5-min Rain = 0
KWVS 120755Z 10003KT M02/M15 A3027 RMK A01 T10241148  RH  038%=      5-min Rain = 0
KWVS 120800Z 11003KT M02/M15 A3027 RMK A01 T10221147  RH  037%=      5-min Rain = 0
KWVS 120805Z 11004KT M02/M15 A3027 RMK A01 T10221148  RH  037%=      5-min Rain = 0
KWVS 120810Z 11003KT M02/M15 A3027 RMK A01 T10231147  RH  038%=      5-min Rain = 0
KWVS 120815Z 13003KT M02/M15 A3027 RMK A01 T10211147  RH  037%=      5-min Rain = 0
KWVS 120820Z 13004KT M02/M15 A3027 RMK A01 T10201147  RH  037%=      5-min Rain = 0
KWVS 120825Z 13004KT M02/M15 A3027 RMK A01 T10241148  RH  038%=      5-min Rain = 0
KWVS 120830Z 13004KT M02/M15 A3028 RMK A01 T10241147  RH  038%=      5-min Rain = 0
KWVS 120835Z 12004KT M03/M15 A3028 RMK A01 T10261147  RH  038%=      5-min Rain = 0
KWVS 120840Z 12004KT M03/M15 A3028 RMK A01 T10291148  RH  039%=      5-min Rain = 0
KWVS 120845Z 13004KT M03/M15 A3028 RMK A01 T10281147  RH  039%=      5-min Rain = 0
KWVS 120850Z 12004KT M03/M15 A3028 RMK A01 T10291147  RH  039%=      5-min Rain = 0
KWVS 120855Z 11004KT M03/M15 A3028 RMK A01 T10331148  RH  040%=      5-min Rain = 0
KWVS 120900Z 10004KT M03/M15 A3028 RMK A01 T10331147  RH  041%=      5-min Rain = 0
KWVS 120905Z 10004KT M03/M15 A3028 RMK A01 T10321147  RH  040%=      5-min Rain = 0
KWVS 120910Z 09004KT M03/M15 A3028 RMK A01 T10331147  RH  041%=      5-min Rain = 0
KWVS 120915Z 10004KT M03/M15 A3029 RMK A01 T10321147  RH  040%=      5-min Rain = 0
KWVS 120920Z 10004KT M03/M15 A3029 RMK A01 T10321147  RH  040%=      5-min Rain = 0
KWVS 120925Z 10004KT M03/M15 A3029 RMK A01 T10331147  RH  041%=      5-min Rain = 0
KWVS 120930Z 11005KT M04/M15 A3029 RMK A01 T10351147  RH  041%=      5-min Rain = 0
KWVS 120935Z 11005KT M04/M15 A3029 RMK A01 T10371147  RH  042%=      5-min Rain = 0
KWVS 120940Z 10004KT M04/M15 A3029 RMK A01 T10371147  RH  042%=      5-min Rain = 0
KWVS 120945Z 10005KT M04/M15 A3029 RMK A01 T10381147  RH  042%=      5-min Rain = 0
KWVS 120950Z 10005KT M04/M15 A3028 RMK A01 T10381147  RH  042%=      5-min Rain = 0
KWVS 120955Z 10004KT M04/M15 A3028 RMK A01 T10381147  RH  042%=      5-min Rain = 0
KWVS 121000Z 09003KT M04/M15 A3029 RMK A01 T10361146  RH  042%=      5-min Rain = 0
KWVS 121005Z 09003KT M04/M15 A3029 RMK A01 T10361147  RH  041%=      5-min Rain = 0
KWVS 121010Z 07004KT M04/M15 A3028 RMK A01 T10361147  RH  042%=      5-min Rain = 0
KWVS 121015Z 06005KT M04/M15 A3028 RMK A01 T10401149  RH  042%=      5-min Rain = 0
KWVS 121020Z 04005KT M05/M15 A3028 RMK A01 T10481150  RH  044%=      5-min Rain = 0
KWVS 121025Z 04004KT M05/M15 A3028 RMK A01 T10521149  RH  046%=      5-min Rain = 0
KWVS 121030Z 03002KT M05/M15 A3029 RMK A01 T10501149  RH  045%=      5-min Rain = 0
KWVS 121035Z 07001KT M05/M15 A3029 RMK A01 T10501151  RH  044%=      5-min Rain = 0
KWVS 121040Z 09001KT M05/M15 A303 RMK A01 T10511151  RH  045%=      5-min Rain = 0
KWVS 121045Z 06001KT M06/M15 A303 RMK A01 T10591153  RH  047%=      5-min Rain = 0
KWVS 121050Z 12002KT M05/M15 A3029 RMK A01 T10531149  RH  047%=      5-min Rain = 0
KWVS 121055Z 11002KT M05/M15 A303 RMK A01 T10471148  RH  045%=      5-min Rain = 0
KWVS 121100Z 11001KT M05/M15 A303 RMK A01 T10451149  RH  044%=      5-min Rain = 0
KWVS 121105Z 03002KT M05/M15 A303 RMK A01 T10471150  RH  044%=      5-min Rain = 0
KWVS 121110Z 03002KT M05/M15 A303 RMK A01 T10501149  RH  045%=      5-min Rain = 0
KWVS 121115Z 07003KT M05/M15 A3029 RMK A01 T10461148  RH  045%=      5-min Rain = 0
KWVS 121120Z 06003KT M05/M15 A3029 RMK A01 T10511149  RH  046%=      5-min Rain = 0
KWVS 121125Z 06003KT M05/M15 A3029 RMK A01 T10511149  RH  046%=      5-min Rain = 0
KWVS 121130Z 06003KT M05/M15 A3029 RMK A01 T10511148  RH  046%=      5-min Rain = 0
KWVS 121135Z 05002KT M05/M15 A303 RMK A01 T10511149  RH  046%=      5-min Rain = 0
KWVS 121140Z 02003KT M06/M15 A303 RMK A01 T10551151  RH  047%=      5-min Rain = 0
KWVS 121145Z 01004KT M06/M15 A303 RMK A01 T10611150  RH  049%=      5-min Rain = 0
KWVS 121150Z 02003KT M06/M15 A303 RMK A01 T10601148  RH  050%=      5-min Rain = 0
KWVS 121155Z 07002KT M06/M15 A303 RMK A01 T10561146  RH  049%=      5-min Rain = 0
KWVS 121200Z 10003KT M05/M14 A303 RMK A01 T10491144  RH  047%=      5-min Rain = 0
KWVS 121205Z 10004KT M05/M14 A303 RMK A01 T10451144  RH  045%=      5-min Rain = 0
KWVS 121210Z 09005KT M05/M14 A3029 RMK A01 T10451144  RH  045%=      5-min Rain = 0
KWVS 121215Z 08005KT M05/M14 A303 RMK A01 T10471144  RH  046%=      5-min Rain = 0
KWVS 121220Z 08005KT M04/M14 A303 RMK A01 T10441144  RH  045%=      5-min Rain = 0
KWVS 121225Z 09005KT M05/M14 A303 RMK A01 T10471144  RH  046%=      5-min Rain = 0
KWVS 121230Z 09005KT M05/M14 A303 RMK A01 T10491144  RH  047%=      5-min Rain = 0
KWVS 121235Z 09006KT M05/M14 A303 RMK A01 T10501144  RH  047%=      5-min Rain = 0
KWVS 121240Z 08005KT M05/M14 A303 RMK A01 T10481143  RH  047%=      5-min Rain = 0
KWVS 121245Z 07005KT M05/M14 A303 RMK A01 T10471144  RH  046%=      5-min Rain = 0
KWVS 121250Z 06006KT M05/M15 A3029 RMK A01 T10491145  RH  047%=      5-min Rain = 0
KWVS 121255Z 05006KT M05/M15 A303 RMK A01 T10531145  RH  048%=      5-min Rain = 0
KWVS 121300Z 06005KT M05/M14 A303 RMK A01 T10531144  RH  048%=      5-min Rain = 0
KWVS 121305Z 06005KT M06/M15 A303 RMK A01 T10551146  RH  048%=      5-min Rain = 0
KWVS 121310Z 05004KT M06/M15 A3031 RMK A01 T10571146  RH  049%=      5-min Rain = 0
KWVS 121315Z 04004KT M06/M15 A3031 RMK A01 T10581146  RH  049%=      5-min Rain = 0
KWVS 121320Z 04004KT M06/M15 A3031 RMK A01 T10621148  RH  050%=      5-min Rain = 0
KWVS 121325Z 04004KT M06/M15 A3031 RMK A01 T10631148  RH  051%=      5-min Rain = 0
KWVS 121330Z 05004KT M06/M15 A3032 RMK A01 T10621147  RH  051%=      5-min Rain = 0
KWVS 121335Z 06004KT M06/M14 A3031 RMK A01 T10591144  RH  051%=      5-min Rain = 0
KWVS 121340Z 05005KT M06/M15 A3032 RMK A01 T10561145  RH  049%=      5-min Rain = 0
KWVS 121345Z 05005KT M06/M15 A3032 RMK A01 T10601146  RH  051%=      5-min Rain = 0
KWVS 121350Z 05006KT M06/M14 A3032 RMK A01 T10571142  RH  051%=      5-min Rain = 0
KWVS 121355Z 04006KT M06/M14 A3032 RMK A01 T10561141  RH  051%=      5-min Rain = 0
KWVS 121400Z 05005KT M05/M14 A3032 RMK A01 T10511138  RH  050%=      5-min Rain = 0
KWVS 121405Z 05004KT M05/M14 A3033 RMK A01 T10481138  RH  049%=      5-min Rain = 0
KWVS 121410Z 05004KT M04/M14 A3033 RMK A01 T10441136  RH  048%=      5-min Rain = 0
KWVS 121415Z 05005KT M04/M13 A3032 RMK A01 T10391134  RH  047%=      5-min Rain = 0
KWVS 121420Z 05007KT M04/M14 A3033 RMK A01 T10361136  RH  045%=      5-min Rain = 0
KWVS 121425Z 06005KT M03/M14 A3033 RMK A01 T10331135  RH  045%=      5-min Rain = 0
KWVS 121430Z 07005KT M03/M13 A3034 RMK A01 T10301134  RH  044%=      5-min Rain = 0
KWVS 121435Z 07006KT M03/M14 A3033 RMK A01 T10321135  RH  044%=      5-min Rain = 0
KWVS 121440Z 07005KT M03/M13 A3033 RMK A01 T10331134  RH  045%=      5-min Rain = 0
KWVS 121445Z 08005KT M03/M13 A3033 RMK A01 T10331134  RH  045%=      5-min Rain = 0
KWVS 121450Z 07005KT M03/M13 A3034 RMK A01 T10331133  RH  045%=      5-min Rain = 0
KWVS 121455Z 07005KT M03/M13 A3034 RMK A01 T10291131  RH  045%=      5-min Rain = 0
KWVS 121500Z 07005KT M02/M13 A3034 RMK A01 T10201129  RH  043%=      5-min Rain = 0
KWVS 121505Z 07005KT M02/M13 A3034 RMK A01 T10161128  RH  042%=      5-min Rain = 0
KWVS 121510Z 07006KT M02/M13 A3034 RMK A01 T10151128  RH  042%=      5-min Rain = 0
KWVS 121515Z 08006KT M01/M13 A3034 RMK A01 T10121127  RH  041%=      5-min Rain = 0
KWVS 121520Z 09007KT M01/M13 A3034 RMK A01 T10101126  RH  041%=      5-min Rain = 0
KWVS 121525Z 10006KT M01/M12 A3034 RMK A01 T10051124  RH  040%=      5-min Rain = 0
KWVS 121530Z 09007KT M00/M13 A3034 RMK A01 T10041125  RH  039%=      5-min Rain = 0
KWVS 121535Z 10007KT M00/M13 A3034 RMK A01 T10011125  RH  039%=      5-min Rain = 0
KWVS 121540Z 08008KT 00/13 A3034 RMK A01 T00-00-125  RH  038%=      5-min Rain = 0
KWVS 121545Z 09008KT 00/13 A3035 RMK A01 T00000-127  RH  038%=      5-min Rain = 0
KWVS 121550Z 11007KT 00/M13 A3034 RMK A01 T00031126  RH  037%=      5-min Rain = 0
KWVS 121555Z 10007KT 01/M13 A3034 RMK A01 T00071126  RH  036%=      5-min Rain = 0
KWVS 121600Z 11007KT 01/M13 A3034 RMK A01 T00121127  RH  035%=      5-min Rain = 0
KWVS 121605Z 11008KT 01/M13 A3035 RMK A01 T00121129  RH  034%=      5-min Rain = 0
KWVS 121610Z 11009KT 01/M13 A3035 RMK A01 T00131130  RH  033%=      5-min Rain = 0
KWVS 121615Z 12008KT 02/M13 A3035 RMK A01 T00151132  RH  032%=      5-min Rain = 0
KWVS 121620Z 10009KT 02/M13 A3035 RMK A01 T00171132  RH  032%=      5-min Rain = 0
KWVS 121625Z 09008KT 02/M13 A3035 RMK A01 T00171132  RH  032%=      5-min Rain = 0
KWVS 121630Z 10008KT 02/M13 A3035 RMK A01 T00191133  RH  031%=      5-min Rain = 0
KWVS 121635Z 09009KT 02/M13 A3035 RMK A01 T00191133  RH  031%=      5-min Rain = 0
KWVS 121640Z 09008KT 02/M13 A3034 RMK A01 T00181133  RH  031%=      5-min Rain = 0
KWVS 121645Z 09008KT 02/M13 A3034 RMK A01 T00201131  RH  031%=      5-min Rain = 0
KWVS 121650Z 09009G14KT 03/M14 A3034 RMK A01 T00251135  RH  029%=      5-min Rain = 0
KWVS 121655Z 09009KT 02/M13 A3034 RMK A01 T00211134  RH  031%=      5-min Rain = 0
KWVS 121700Z 10009KT 02/M13 A3034 RMK A01 T00221134  RH  030%=      5-min Rain = 0
KWVS 121705Z 09008G14KT 02/M13 A3034 RMK A01 T00241133  RH  030%=      5-min Rain = 0
KWVS 121710Z 09009G14KT 03/M14 A3033 RMK A01 T00281135  RH  029%=      5-min Rain = 0
KWVS 121715Z 09009KT 03/M14 A3033 RMK A01 T00321138  RH  027%=      5-min Rain = 0
KWVS 121720Z 11008KT 03/M14 A3033 RMK A01 T00311137  RH  028%=      5-min Rain = 0
KWVS 121725Z 10008KT 04/M14 A3033 RMK A01 T00371136  RH  027%=      5-min Rain = 0
KWVS 121730Z 09008KT 04/M14 A3033 RMK A01 T00371136  RH  027%=      5-min Rain = 0
KWVS 121735Z 10009KT 04/M14 A3033 RMK A01 T00361135  RH  027%=      5-min Rain = 0
KWVS 121740Z 12010KT 04/M13 A3033 RMK A01 T00381133  RH  027%=      5-min Rain = 0
KWVS 121745Z 10008KT 04/M13 A3032 RMK A01 T00391134  RH  027%=      5-min Rain = 0
KWVS 121750Z 11008KT 04/M14 A3032 RMK A01 T00421136  RH  026%=      5-min Rain = 0
KWVS 121755Z 10010KT 04/M14 A3032 RMK A01 T00381138  RH  026%=      5-min Rain = 0
KWVS 121800Z 11008G15KT 04/M14 A3032 RMK A01 T00391137  RH  026%=      5-min Rain = 0
KWVS 121805Z 12011KT 04/M14 A3032 RMK A01 T00401138  RH  026%=      5-min Rain = 0
KWVS 121810Z 10009KT 04/M14 A3032 RMK A01 T00411136  RH  026%=      5-min Rain = 0
KWVS 121815Z 09010KT 05/M14 A3031 RMK A01 T00451135  RH  026%=      5-min Rain = 0
KWVS 121820Z 10009KT 04/M13 A3031 RMK A01 T00431131  RH  027%=      5-min Rain = 0
KWVS 121825Z 09010KT 05/M13 A3031 RMK A01 T00481130  RH  026%=      5-min Rain = 0
KWVS 121830Z 09008G15KT 05/M13 A303 RMK A01 T00461131  RH  026%=      5-min Rain = 0
KWVS 121835Z 11010G15KT 05/M13 A303 RMK A01 T00521131  RH  025%=      5-min Rain = 0
KWVS 121840Z 11009G15KT 05/M13 A303 RMK A01 T00541132  RH  025%=      5-min Rain = 0
KWVS 121845Z 11010KT 06/M13 A303 RMK A01 T00561133  RH  024%=      5-min Rain = 0
KWVS 121850Z 10008KT 06/M13 A303 RMK A01 T00591130  RH  024%=      5-min Rain = 0
KWVS 121855Z 11010G16KT 07/M13 A303 RMK A01 T00651131  RH  023%=      5-min Rain = 0
KWVS 121900Z 10010G15KT 06/M13 A3029 RMK A01 T00571133  RH  024%=      5-min Rain = 0
KWVS 121905Z 11008G15KT 07/M13 A3029 RMK A01 T00661130  RH  023%=      5-min Rain = 0
KWVS 121910Z 12010G17KT 06/M13 A3028 RMK A01 T00621134  RH  023%=      5-min Rain = 0
KWVS 121915Z 09012KT 06/M13 A3028 RMK A01 T00621132  RH  023%=      5-min Rain = 0
KWVS 121920Z 10013G19KT 06/M13 A3028 RMK A01 T00621132  RH  023%=      5-min Rain = 0
KWVS 121925Z 10010KT 06/M13 A3028 RMK A01 T00591132  RH  024%=      5-min Rain = 0
KWVS 121930Z 10009G16KT 07/M13 A3027 RMK A01 T00651130  RH  023%=      5-min Rain = 0
KWVS 121935Z 11010G16KT 07/M13 A3027 RMK A01 T00701131  RH  022%=      5-min Rain = 0
KWVS 121940Z 12011G16KT 07/M13 A3026 RMK A01 T00701131  RH  022%=      5-min Rain = 0
KWVS 121945Z 12010KT 07/M13 A3026 RMK A01 T00701131  RH  022%=      5-min Rain = 0
KWVS 121950Z 11010KT 07/M13 A3025 RMK A01 T00741130  RH  022%=      5-min Rain = 0
KWVS 121955Z 10010G18KT 07/M13 A3024 RMK A01 T00731130  RH  022%=      5-min Rain = 0
KWVS 122000Z 11011G17KT 07/M13 A3024 RMK A01 T00731130  RH  022%=      5-min Rain = 0
KWVS 122005Z 11011KT 07/M13 A3024 RMK A01 T00731129  RH  022%=      5-min Rain = 0
KWVS 122010Z 10010KT 08/M13 A3023 RMK A01 T00751128  RH  022%=      5-min Rain = 0
KWVS 122015Z 11012G17KT 08/M13 A3023 RMK A01 T00761129  RH  022%=      5-min Rain = 0
KWVS 122020Z 11010KT 07/M13 A3023 RMK A01 T00741128  RH  022%=      5-min Rain = 0
KWVS 122025Z 12010G16KT 08/M13 A3023 RMK A01 T00821125  RH  021%=      5-min Rain = 0
KWVS 122030Z 10012G17KT 08/M13 A3022 RMK A01 T00801126  RH  022%=      5-min Rain = 0
KWVS 122035Z 13011G17KT 08/M13 A3022 RMK A01 T00781125  RH  022%=      5-min Rain = 0
KWVS 122040Z 11012G17KT 08/M12 A3022 RMK A01 T00771124  RH  022%=      5-min Rain = 0
KWVS 122045Z 12010KT 08/M12 A3022 RMK A01 T00791124  RH  022%=      5-min Rain = 0
KWVS 122050Z 10011KT 08/M12 A3022 RMK A01 T00791123  RH  022%=      5-min Rain = 0
KWVS 122055Z 11010G15KT 08/M12 A3022 RMK A01 T00821123  RH  022%=      5-min Rain = 0
KWVS 122100Z 13012KT 08/M12 A3022 RMK A01 T00831123  RH  022%=      5-min Rain = 0
KWVS 122105Z 11012G18KT 08/M12 A3022 RMK A01 T00811122  RH  022%=      5-min Rain = 0
KWVS 122110Z 11009KT 08/M12 A3022 RMK A01 T00821122  RH  022%=      5-min Rain = 0
KWVS 122115Z 12012KT 08/M12 A3022 RMK A01 T00831123  RH  022%=      5-min Rain = 0
KWVS 122120Z 11011KT 08/M12 A3021 RMK A01 T00831121  RH  022%=      5-min Rain = 0
KWVS 122125Z 12012G17KT 08/M12 A3021 RMK A01 T00841122  RH  022%=      5-min Rain = 0
KWVS 122130Z 12011G18KT 08/M12 A3021 RMK A01 T00781122  RH  023%=      5-min Rain = 0
KWVS 122135Z 12013KT 08/M12 A3021 RMK A01 T00821120  RH  022%=      5-min Rain = 0
KWVS 122140Z 11011KT 08/M12 A3021 RMK A01 T00811119  RH  023%=      5-min Rain = 0
KWVS 122145Z 12012KT 08/M12 A3021 RMK A01 T00831118  RH  023%=      5-min Rain = 0
KWVS 122150Z 13013G18KT 09/M12 A3021 RMK A01 T00851119  RH  022%=      5-min Rain = 0
KWVS 122155Z 12011KT 08/M12 A3021 RMK A01 T00831119  RH  023%=      5-min Rain = 0
KWVS 122200Z 13012G17KT 09/M12 A3021 RMK A01 T00861118  RH  022%=      5-min Rain = 0
KWVS 122205Z 13013KT 08/M12 A3021 RMK A01 T00801118  RH  023%=      5-min Rain = 0
KWVS 122210Z 12012KT 08/M12 A3021 RMK A01 T00811118  RH  023%=      5-min Rain = 0
KWVS 122215Z 12011G16KT 08/M12 A3021 RMK A01 T00791118  RH  023%=      5-min Rain = 0
KWVS 122220Z 12011G16KT 08/M12 A302 RMK A01 T00781117  RH  023%=      5-min Rain = 0
KWVS 122225Z 12012KT 08/M12 A302 RMK A01 T00831116  RH  023%=      5-min Rain = 0
KWVS 122230Z 12012KT 08/M12 A302 RMK A01 T00791117  RH  023%=      5-min Rain = 0
KWVS 122235Z 13011KT 08/M12 A302 RMK A01 T00781117  RH  024%=      5-min Rain = 0
KWVS 122240Z 12013KT 08/M12 A302 RMK A01 T00791116  RH  024%=      5-min Rain = 0
KWVS 122245Z 12013KT 08/M12 A302 RMK A01 T00761116  RH  024%=      5-min Rain = 0
KWVS 122250Z 12012G17KT 07/M12 A3021 RMK A01 T00731115  RH  025%=      5-min Rain = 0
KWVS 122255Z 11010G15KT 07/M11 A3021 RMK A01 T00721114  RH  025%=      5-min Rain = 0
KWVS 122300Z 11012KT 07/M12 A3021 RMK A01 T00711115  RH  025%=      5-min Rain = 0
KWVS 122305Z 10010G15KT 07/M11 A3021 RMK A01 T00701114  RH  025%=      5-min Rain = 0
KWVS 122310Z 11013KT 07/M11 A3021 RMK A01 T00691113  RH  026%=      5-min Rain = 0
KWVS 122315Z 12011KT 07/M11 A3021 RMK A01 T00691112  RH  026%=      5-min Rain = 0
KWVS 122320Z 11011KT 07/M11 A3021 RMK A01 T00691112  RH  026%=      5-min Rain = 0
KWVS 122325Z 12011KT 07/M11 A3021 RMK A01 T00731112  RH  025%=      5-min Rain = 0
KWVS 122330Z 11011G16KT 07/M11 A3021 RMK A01 T00721112  RH  026%=      5-min Rain = 0
KWVS 122335Z 11010KT 07/M11 A3021 RMK A01 T00741111  RH  025%=      5-min Rain = 0
KWVS 122340Z 11012KT 07/M11 A3021 RMK A01 T00721111  RH  026%=      5-min Rain = 0
KWVS 122345Z 12012KT 07/M11 A3021 RMK A01 T00691111  RH  026%=      5-min Rain = 0
KWVS 122350Z 11011G16KT 07/M11 A3021 RMK A01 T00651110  RH  027%=      5-min Rain = 0
KWVS 122355Z 11011KT 07/M11 A3021 RMK A01 T00651109  RH  027%=      5-min Rain = 0
KWVS 130000Z 12010KT 06/M11 A3021 RMK A01 T00631109  RH  028%=      5-min Rain = 0
KWVS 130005Z 11012KT 06/M11 A3021 RMK A01 T00621109  RH  028%=      5-min Rain = 0
KWVS 130010Z 12012KT 06/M11 A3021 RMK A01 T00601108  RH  029%=      5-min Rain = 0
KWVS 130015Z 11010KT 06/M11 A3021 RMK A01 T00571108  RH  029%=      5-min Rain = 0
KWVS 130020Z 11009KT 06/M11 A3021 RMK A01 T00561108  RH  029%=      5-min Rain = 0
KWVS 130025Z 11009KT 05/M11 A3021 RMK A01 T00531108  RH  030%=      5-min Rain = 0
KWVS 130030Z 11009KT 05/M11 A3021 RMK A01 T00501108  RH  031%=      5-min Rain = 0
KWVS 130035Z 11010KT 05/M11 A3021 RMK A01 T00501108  RH  031%=      5-min Rain = 0
KWVS 130040Z 11009KT 05/M11 A3021 RMK A01 T00481108  RH  031%=      5-min Rain = 0
KWVS 130045Z 11008KT 05/M11 A3021 RMK A01 T00451108  RH  032%=      5-min Rain = 0
KWVS 130050Z 11009KT 04/M11 A3022 RMK A01 T00441107  RH  032%=      5-min Rain = 0
KWVS 130055Z 10008KT 04/M11 A3022 RMK A01 T00421108  RH  032%=      5-min Rain = 0
KWVS 130100Z 10008KT 04/M11 A3022 RMK A01 T00411108  RH  033%=      5-min Rain = 0
KWVS 130105Z 11008KT 04/M11 A3022 RMK A01 T00381109  RH  033%=      5-min Rain = 0
KWVS 130110Z 10008KT 04/M11 A3022 RMK A01 T00371109  RH  033%=      5-min Rain = 0
KWVS 130115Z 10008KT 04/M11 A3022 RMK A01 T00361110  RH  033%=      5-min Rain = 0
KWVS 130120Z 10008KT 04/M11 A3022 RMK A01 T00361110  RH  033%=      5-min Rain = 0
KWVS 130125Z 09009KT 04/M11 A3022 RMK A01 T00361110  RH  033%=      5-min Rain = 0
KWVS 130130Z 09008KT 03/M11 A3023 RMK A01 T00341111  RH  033%=      5-min Rain = 0
KWVS 130135Z 09008KT 03/M11 A3023 RMK A01 T00301112  RH  034%=      5-min Rain = 0
KWVS 130140Z 08007KT 03/M11 A3023 RMK A01 T00261113  RH  035%=      5-min Rain = 0
KWVS 130145Z 08006KT 02/M12 A3023 RMK A01 T00191115  RH  036%=      5-min Rain = 0
KWVS 130150Z 07006KT 02/M12 A3024 RMK A01 T00181115  RH  037%=      5-min Rain = 0
KWVS 130155Z 08006KT 02/M12 A3024 RMK A01 T00151116  RH  037%=      5-min Rain = 0
KWVS 130200Z 08006KT 01/M12 A3024 RMK A01 T00111116  RH  038%=      5-min Rain = 0
KWVS 130205Z 07006KT 01/M12 A3024 RMK A01 T00131115  RH  038%=      5-min Rain = 0
KWVS 130210Z 07007KT 02/M12 A3024 RMK A01 T00161115  RH  037%=      5-min Rain = 0
KWVS 130215Z 08007KT 02/M11 A3024 RMK A01 T00151114  RH  037%=      5-min Rain = 0
KWVS 130220Z 08008KT 02/M11 A3025 RMK A01 T00161113  RH  038%=      5-min Rain = 0
KWVS 130225Z 08007KT 02/M11 A3025 RMK A01 T00171113  RH  037%=      5-min Rain = 0
KWVS 130230Z 07006KT 02/M11 A3025 RMK A01 T00151113  RH  038%=      5-min Rain = 0
KWVS 130235Z 06007KT 01/M11 A3025 RMK A01 T00131114  RH  038%=      5-min Rain = 0
KWVS 130240Z 07007KT 02/M11 A3025 RMK A01 T00151113  RH  038%=      5-min Rain = 0
KWVS 130245Z 08008KT 01/M11 A3025 RMK A01 T00141113  RH  038%=      5-min Rain = 0
KWVS 130250Z 08008KT 02/M11 A3025 RMK A01 T00161111  RH  038%=      5-min Rain = 0
KWVS 130255Z 07009KT 02/M11 A3025 RMK A01 T00171111  RH  038%=      5-min Rain = 0
KWVS 130300Z 08008KT 02/M11 A3025 RMK A01 T00171111  RH  038%=      5-min Rain = 0
KWVS 130305Z 08008KT 02/M11 A3025 RMK A01 T00161111  RH  038%=      5-min Rain = 0
KWVS 130310Z 08009KT 02/M11 A3025 RMK A01 T00161110  RH  038%=      5-min Rain = 0
KWVS 130315Z 08009KT 02/M11 A3025 RMK A01 T00151110  RH  039%=      5-min Rain = 0
KWVS 130320Z 08007KT 01/M11 A3025 RMK A01 T00121112  RH  039%=      5-min Rain = 0
KWVS 130325Z 07007KT 01/M11 A3025 RMK A01 T00121111  RH  039%=      5-min Rain = 0
KWVS 130330Z 06007KT 01/M11 A3026 RMK A01 T00111112  RH  039%=      5-min Rain = 0
KWVS 130335Z 07007KT 01/M11 A3026 RMK A01 T00111111  RH  040%=      5-min Rain = 0
KWVS 130340Z 07008KT 01/M11 A3026 RMK A01 T00111110  RH  040%=      5-min Rain = 0
KWVS 130345Z 07008KT 01/M11 A3026 RMK A01 T00101111  RH  040%=      5-min Rain = 0
KWVS 130350Z 07007KT 01/M11 A3026 RMK A01 T00071111  RH  041%=      5-min Rain = 0
KWVS 130355Z 07007KT 01/M11 A3026 RMK A01 T00051111  RH  041%=      5-min Rain = 0
KWVS 130400Z 07007KT 00/M11 A3026 RMK A01 T00031111  RH  042%=      5-min Rain = 0
KWVS 130405Z 07007KT 00/M11 A3027 RMK A01 T00031111  RH  042%=      5-min Rain = 0
KWVS 130410Z 07007KT 00/M11 A3027 RMK A01 T00031110  RH  042%=      5-min Rain = 0
KWVS 130415Z 07007KT 00/M11 A3027 RMK A01 T00021110  RH  042%=      5-min Rain = 0
KWVS 130420Z 07007KT 00/M11 A3027 RMK A01 T00021110  RH  043%=      5-min Rain = 0
KWVS 130425Z 08008KT 00/M11 A3027 RMK A01 T00011108  RH  043%=      5-min Rain = 0
KWVS 130430Z 08007KT 00/M11 A3027 RMK A01 T00021107  RH  043%=      5-min Rain = 0
KWVS 130435Z 07007KT 00/M11 A3027 RMK A01 T00011108  RH  044%=      5-min Rain = 0
KWVS 130440Z 07007KT 00/M11 A3027 RMK A01 T00011108  RH  044%=      5-min Rain = 0
KWVS 130445Z 06007KT 00/M11 A3027 RMK A01 T00011107  RH  044%=      5-min Rain = 0
KWVS 130450Z 06007KT 00/11 A3027 RMK A01 T00-00-107  RH  044%=      5-min Rain = 0
KWVS 130455Z 07007KT 00/M11 A3027 RMK A01 T00011105  RH  045%=      5-min Rain = 0
KWVS 130500Z 07007KT 00/M10 A3027 RMK A01 T00021104  RH  045%=      5-min Rain = 0
KWVS 130505Z 08007KT 00/M10 A3027 RMK A01 T00011103  RH  045%=      5-min Rain = 0
KWVS 130510Z 08008KT 00/M10 A3027 RMK A01 T00021101  RH  045%=      5-min Rain = 0
KWVS 130515Z 07008KT 00/M10 A3027 RMK A01 T00031101  RH  045%=      5-min Rain = 0
KWVS 130520Z 07007KT 00/M10 A3027 RMK A01 T00021102  RH  045%=      5-min Rain = 0
KWVS 130525Z 07006KT 00/10 A3027 RMK A01 T00000-101  RH  046%=      5-min Rain = 0
KWVS 130530Z 07007KT 00/10 A3027 RMK A01 T00000-100  RH  047%=      5-min Rain = 0
KWVS 130535Z 06006KT M00/M10 A3028 RMK A01 T10031102  RH  047%=      5-min Rain = 0
KWVS 130540Z 07007KT M00/M10 A3027 RMK A01 T10041101  RH  048%=      5-min Rain = 0
KWVS 130545Z 06007KT M00/M10 A3028 RMK A01 T10031098  RH  049%=      5-min Rain = 0
KWVS 130550Z 06007KT M00/M10 A3028 RMK A01 T10041097  RH  049%=      5-min Rain = 0
KWVS 130555Z 07007KT M00/M10 A3027 RMK A01 T10031095  RH  050%=      5-min Rain = 0

Page generated in 0.0096 seconds.